createdAt,value
2022-09-26T00:03:02.197Z,6.73
2022-09-26T00:06:09.900Z,6.67
2022-09-26T00:09:18.528Z,7.53
2022-09-26T00:12:25.043Z,7.35
2022-09-26T00:15:31.411Z,7.11
2022-09-26T00:18:38.250Z,6.54
2022-09-26T00:21:44.972Z,6.28
2022-09-26T00:24:54.048Z,7.03
2022-09-26T00:28:00.331Z,7.42
2022-09-26T00:31:08.177Z,7.33
2022-09-26T00:34:15.659Z,6.89
2022-09-26T00:37:21.854Z,6.86
2022-09-26T00:40:30.713Z,6.03
2022-09-26T00:43:39.665Z,5.81
2022-09-26T00:46:49.427Z,6.21
2022-09-26T00:49:59.871Z,7.28
2022-09-26T00:53:10.916Z,7.50
2022-09-26T00:56:22.566Z,7.59
2022-09-26T00:59:32.490Z,7.22
2022-09-26T01:02:40.293Z,6.23
2022-09-26T01:05:47.510Z,5.97
2022-09-26T01:08:58.383Z,6.42
2022-09-26T01:12:08.655Z,6.52
2022-09-26T01:15:14.974Z,7.38
2022-09-26T01:18:21.621Z,7.20
2022-09-26T01:21:48.474Z,7.23
2022-09-26T01:25:08.928Z,6.74
2022-09-26T01:28:34.192Z,5.66
2022-09-26T01:32:09.678Z,6.03
2022-09-26T01:35:41.532Z,6.57
2022-09-26T01:39:01.176Z,6.78
2022-09-26T01:42:18.111Z,6.12
2022-09-26T01:45:30.653Z,6.74
2022-09-26T01:48:45.867Z,6.46
2022-09-26T01:51:59.287Z,6.33
2022-09-26T01:55:10.168Z,6.80
2022-09-26T01:58:22.113Z,5.78
2022-09-26T02:01:34.332Z,5.20
2022-09-26T02:04:44.739Z,5.56
2022-09-26T02:07:56.164Z,5.96
2022-09-26T02:11:07.662Z,5.96
2022-09-26T02:14:18.167Z,6.48
2022-09-26T02:17:32.041Z,5.80
2022-09-26T02:20:43.135Z,5.71
2022-09-26T02:23:51.039Z,5.82
2022-09-26T02:26:57.249Z,6.06
2022-09-26T02:30:03.467Z,5.87
2022-09-26T02:33:09.876Z,6.46
2022-09-26T02:36:19.888Z,6.92
2022-09-26T02:39:26.465Z,7.02
2022-09-26T02:42:37.217Z,6.71
2022-09-26T02:45:48.679Z,6.50
2022-09-26T02:49:08.687Z,6.87
2022-09-26T02:52:29.940Z,6.54
2022-09-26T02:55:46.266Z,6.44
2022-09-26T02:58:59.810Z,6.77
2022-09-26T03:02:15.893Z,6.88
2022-09-26T03:05:24.696Z,6.85
2022-09-26T03:08:38.643Z,6.02
2022-09-26T03:11:45.725Z,6.11
2022-09-26T03:14:57.876Z,5.59
2022-09-26T03:18:13.075Z,5.27
2022-09-26T03:21:19.649Z,5.22
2022-09-26T03:24:28.031Z,5.04
2022-09-26T03:27:36.068Z,5.88
2022-09-26T03:30:42.115Z,6.33
2022-09-26T03:33:48.615Z,6.46
2022-09-26T03:36:55.671Z,6.26
2022-09-26T03:40:04.110Z,6.98
2022-09-26T03:43:11.179Z,6.81
2022-09-26T03:46:17.237Z,6.05
2022-09-26T03:49:23.340Z,5.69
2022-09-26T03:52:31.123Z,6.23
2022-09-26T03:55:38.578Z,6.54
2022-09-26T03:58:44.818Z,5.77
2022-09-26T04:01:51.236Z,6.63
2022-09-26T04:04:57.506Z,6.49
2022-09-26T04:08:04.155Z,6.86
2022-09-26T04:11:13.626Z,6.59
2022-09-26T04:14:20.367Z,6.15
2022-09-26T04:17:26.847Z,5.73
2022-09-26T04:20:33.143Z,5.72
2022-09-26T04:23:41.743Z,5.54
2022-09-26T04:26:49.511Z,6.35
2022-09-26T04:29:57.292Z,6.66
2022-09-26T04:33:03.574Z,6.69
2022-09-26T04:36:12.231Z,6.88
2022-09-26T04:39:18.217Z,6.06
2022-09-26T04:42:26.093Z,6.35
2022-09-26T04:45:32.172Z,6.52
2022-09-26T04:48:38.540Z,6.28
2022-09-26T04:51:44.980Z,6.79
2022-09-26T04:54:51.190Z,7.62
2022-09-26T04:57:58.709Z,7.49
2022-09-26T05:01:06.457Z,7.65
2022-09-26T05:04:13.530Z,7.79
2022-09-26T05:07:19.912Z,8.16
2022-09-26T05:10:26.000Z,8.20
2022-09-26T05:13:33.750Z,7.76
2022-09-26T05:16:40.292Z,7.56
2022-09-26T05:19:46.349Z,7.67
2022-09-26T05:22:52.789Z,8.04
2022-09-26T05:26:16.735Z,8.32
2022-09-26T05:29:24.699Z,8.66
2022-09-26T05:32:31.160Z,9.40
2022-09-26T05:35:37.523Z,9.51
2022-09-26T05:38:43.923Z,8.51
2022-09-26T05:41:49.757Z,8.92
2022-09-26T05:44:57.663Z,8.68
2022-09-26T05:48:03.753Z,9.15
2022-09-26T05:51:12.554Z,9.45
2022-09-26T05:54:18.943Z,9.63
2022-09-26T05:57:25.477Z,10.46
2022-09-26T06:00:34.062Z,10.48
2022-09-26T06:03:44.153Z,10.46
2022-09-26T06:06:51.407Z,10.86
2022-09-26T06:09:57.403Z,10.08
2022-09-26T06:13:04.139Z,11.22
2022-09-26T06:16:14.748Z,11.28
2022-09-26T06:19:23.091Z,10.96
2022-09-26T06:22:29.746Z,10.57
2022-09-26T06:25:35.895Z,10.83
2022-09-26T06:28:42.175Z,10.55
2022-09-26T06:31:50.770Z,11.03
2022-09-26T06:34:57.159Z,12.19
2022-09-26T06:38:05.075Z,12.54
2022-09-26T06:41:11.560Z,13.05
2022-09-26T06:44:18.176Z,12.90
2022-09-26T06:47:26.100Z,13.01
2022-09-26T06:50:32.475Z,12.71
2022-09-26T06:53:39.264Z,12.75
2022-09-26T06:56:45.594Z,13.36
2022-09-26T06:59:51.641Z,13.62
2022-09-26T07:03:00.916Z,13.72
2022-09-26T07:06:07.599Z,13.24
2022-09-26T07:09:13.810Z,13.44
2022-09-26T07:12:19.982Z,13.96
2022-09-26T07:15:30.893Z,14.24
2022-09-26T07:18:39.702Z,13.38
2022-09-26T07:21:46.432Z,14.40
2022-09-26T07:24:52.787Z,14.60
2022-09-26T07:27:59.710Z,15.04
2022-09-26T07:31:07.681Z,14.56
2022-09-26T07:34:18.277Z,14.97
2022-09-26T07:37:25.371Z,15.64
2022-09-26T07:40:31.495Z,15.79
2022-09-26T07:47:21.236Z,15.03
2022-09-26T07:50:28.848Z,15.66
2022-09-26T07:53:35.032Z,16.02
2022-09-26T07:56:43.806Z,15.97
2022-09-26T07:59:50.627Z,16.28
2022-09-26T08:03:02.165Z,16.30
2022-09-26T08:06:10.659Z,16.33
2022-09-26T08:09:16.953Z,17.00
2022-09-26T08:12:23.375Z,17.44
2022-09-26T08:15:29.871Z,16.92
2022-09-26T08:18:36.330Z,17.04
2022-09-26T08:21:44.428Z,16.91
2022-09-26T08:24:51.027Z,17.38
2022-09-26T08:27:59.644Z,16.94
2022-09-26T08:31:07.202Z,17.49
2022-09-26T08:34:13.690Z,17.40
2022-09-26T08:37:21.801Z,18.12
2022-09-26T08:40:34.363Z,18.23
2022-09-26T08:44:13.101Z,18.35
2022-09-26T08:47:33.805Z,18.41
2022-09-26T08:50:47.862Z,18.81
2022-09-26T08:54:02.440Z,18.68
2022-09-26T08:57:22.561Z,19.78
2022-09-26T09:00:38.833Z,19.10
2022-09-26T09:03:52.951Z,20.28
2022-09-26T09:07:05.635Z,19.61
2022-09-26T09:10:19.415Z,20.16
2022-09-26T09:13:39.637Z,19.19
2022-09-26T09:16:58.608Z,20.09
2022-09-26T09:20:16.224Z,20.07
2022-09-26T09:23:35.830Z,20.06
2022-09-26T09:30:23.950Z,20.99
2022-09-26T09:33:35.223Z,20.18
2022-09-26T09:36:45.341Z,20.20
2022-09-26T09:39:52.503Z,20.61
2022-09-26T09:43:05.375Z,21.43
2022-09-26T09:46:18.112Z,22.36
2022-09-26T09:49:25.813Z,22.59
2022-09-26T09:52:52.340Z,21.51
2022-09-26T09:56:10.671Z,22.39
2022-09-26T09:59:42.289Z,23.21
2022-09-26T10:02:55.009Z,23.17
2022-09-26T10:06:03.162Z,23.10
2022-09-26T10:09:38.674Z,23.36
2022-09-26T10:12:45.848Z,23.27
2022-09-26T10:15:59.085Z,24.66
2022-09-26T10:19:07.311Z,23.97
2022-09-26T10:22:24.301Z,23.97
2022-09-26T10:25:30.592Z,23.45
2022-09-26T10:28:45.031Z,23.82
2022-09-26T10:31:58.719Z,23.89
2022-09-26T10:35:08.923Z,23.95
2022-09-26T10:38:21.959Z,23.36
2022-09-26T10:41:27.266Z,23.31
2022-09-26T10:44:35.038Z,22.28
2022-09-26T10:47:46.267Z,22.69
2022-09-26T10:50:55.795Z,22.54
2022-09-26T10:54:06.414Z,22.84
2022-09-26T10:57:23.205Z,22.30
2022-09-26T11:00:38.903Z,22.10
2022-09-26T11:03:47.865Z,23.18
2022-09-26T11:06:54.459Z,23.27
2022-09-26T11:10:04.452Z,22.89
2022-09-26T11:13:18.039Z,23.31
2022-09-26T11:16:24.377Z,23.46
2022-09-26T11:19:40.807Z,22.60
2022-09-26T11:22:54.487Z,23.61
2022-09-26T11:26:17.080Z,23.93
2022-09-26T11:29:38.654Z,24.26
2022-09-26T11:32:48.720Z,24.81
2022-09-26T11:36:11.051Z,25.13
2022-09-26T11:39:37.360Z,25.28
2022-09-26T11:42:55.598Z,23.89
2022-09-26T11:46:18.684Z,24.65
2022-09-26T11:49:39.745Z,25.66
2022-09-26T11:53:02.049Z,24.97
2022-09-26T11:56:32.897Z,24.75
2022-09-26T11:59:59.672Z,25.28
2022-09-26T12:03:30.563Z,26.23
2022-09-26T12:06:49.811Z,26.04
2022-09-26T12:10:13.143Z,25.28
2022-09-26T12:13:29.953Z,25.14
2022-09-26T12:16:46.739Z,24.91
2022-09-26T12:20:02.518Z,24.15
2022-09-26T12:23:20.671Z,24.65
2022-09-26T12:26:36.775Z,26.18
2022-09-26T12:29:49.483Z,26.17
2022-09-26T12:33:22.655Z,26.14
2022-09-26T12:36:40.535Z,25.70
2022-09-26T12:40:10.365Z,25.41
2022-09-26T12:43:50.635Z,25.04
2022-09-26T12:47:19.718Z,25.42
2022-09-26T12:50:37.762Z,25.05
2022-09-26T12:54:10.627Z,24.56
2022-09-26T12:57:28.301Z,25.84
2022-09-26T13:00:44.429Z,25.98
2022-09-26T13:04:25.120Z,24.93
2022-09-26T13:07:43.466Z,24.40
2022-09-26T13:11:01.258Z,24.29
2022-09-26T13:14:49.132Z,24.64
2022-09-26T13:18:02.662Z,23.63
2022-09-26T13:21:14.000Z,24.29
2022-09-26T13:24:25.700Z,23.97
2022-09-26T13:27:38.394Z,23.88
2022-09-26T13:30:50.212Z,24.02
2022-09-26T13:34:01.418Z,24.09
2022-09-26T13:37:28.687Z,23.67
2022-09-26T13:40:42.091Z,24.38
2022-09-26T13:44:03.591Z,24.38
2022-09-26T13:47:18.938Z,23.78
2022-09-26T13:50:35.427Z,23.76
2022-09-26T13:53:50.231Z,23.57
2022-09-26T13:56:56.328Z,22.86
2022-09-26T14:00:08.044Z,22.67
2022-09-26T14:03:44.588Z,23.30
2022-09-26T14:07:32.982Z,22.92
2022-09-26T14:10:42.231Z,22.32
2022-09-26T14:13:50.229Z,22.82
2022-09-26T14:16:58.325Z,22.11
2022-09-26T14:20:05.927Z,22.50
2022-09-26T14:23:35.751Z,23.19
2022-09-26T14:26:44.364Z,23.75
2022-09-26T14:29:54.456Z,23.27
2022-09-26T14:33:03.902Z,23.56
2022-09-26T14:36:26.144Z,22.48
2022-09-26T14:39:39.669Z,21.98
2022-09-26T14:42:54.076Z,21.92
2022-09-26T14:46:05.204Z,22.06
2022-09-26T14:49:23.763Z,21.57
2022-09-26T14:52:30.964Z,22.17
2022-09-26T14:55:58.519Z,21.69
2022-09-26T14:59:44.254Z,21.79
2022-09-26T15:02:50.524Z,21.43
2022-09-26T15:05:57.100Z,21.63
2022-09-26T15:09:10.673Z,21.77
2022-09-26T15:12:23.777Z,21.56
2022-09-26T15:15:42.961Z,21.59
2022-09-26T15:18:54.314Z,21.17
2022-09-26T15:22:03.026Z,20.63
2022-09-26T15:25:10.884Z,20.94
2022-09-26T15:28:18.893Z,20.95
2022-09-26T15:31:28.249Z,20.62
2022-09-26T15:34:37.181Z,20.72
2022-09-26T15:37:44.209Z,20.67
2022-09-26T15:41:01.547Z,20.08
2022-09-26T15:44:19.554Z,20.36
2022-09-26T15:47:41.839Z,20.42
2022-09-26T15:50:50.334Z,20.14
2022-09-26T15:54:00.579Z,20.27
2022-09-26T15:57:08.171Z,19.85
2022-09-26T16:00:17.025Z,19.60
2022-09-26T16:03:38.967Z,19.92
2022-09-26T16:06:54.350Z,20.02
2022-09-26T16:10:01.038Z,19.82
2022-09-26T16:13:23.990Z,19.79
2022-09-26T16:16:35.734Z,19.31
2022-09-26T16:19:47.683Z,19.29
2022-09-26T16:23:00.320Z,18.95
2022-09-26T16:26:26.187Z,19.26
2022-09-26T16:29:34.835Z,19.39
2022-09-26T16:32:42.386Z,19.14
2022-09-26T16:35:49.544Z,18.82
2022-09-26T16:38:58.947Z,19.21
2022-09-26T16:42:16.279Z,18.87
2022-09-26T16:45:22.850Z,18.94
2022-09-26T16:48:41.950Z,18.97
2022-09-26T16:52:27.051Z,18.81
2022-09-26T16:55:37.626Z,18.98
2022-09-26T16:58:50.303Z,18.72
2022-09-26T17:02:00.112Z,19.13
2022-09-26T17:05:16.924Z,18.64
2022-09-26T17:08:23.415Z,18.84
2022-09-26T17:11:30.164Z,18.61
2022-09-26T17:14:40.760Z,18.59
2022-09-26T17:17:47.185Z,18.51
2022-09-26T17:20:54.352Z,18.12
2022-09-26T17:24:00.891Z,18.34
2022-09-26T17:27:09.048Z,18.34
2022-09-26T17:30:18.314Z,18.34
2022-09-26T17:33:30.371Z,18.09
2022-09-26T17:36:39.371Z,17.84
2022-09-26T17:39:45.794Z,17.94
2022-09-26T17:42:55.436Z,17.85
2022-09-26T17:46:02.265Z,17.84
2022-09-26T17:49:14.047Z,17.93
2022-09-26T17:52:27.387Z,18.25
2022-09-26T17:55:33.672Z,18.35
2022-09-26T17:58:44.049Z,18.12
2022-09-26T18:01:54.678Z,18.32
2022-09-26T18:05:04.553Z,18.10
2022-09-26T18:08:19.330Z,18.18
2022-09-26T18:11:25.558Z,17.87
2022-09-26T18:14:35.280Z,18.05
2022-09-26T18:17:42.064Z,17.78
2022-09-26T18:20:49.339Z,17.94
2022-09-26T18:24:01.038Z,17.79
2022-09-26T18:27:07.962Z,17.68
2022-09-26T18:30:16.209Z,17.64
2022-09-26T18:33:23.164Z,17.87
2022-09-26T18:36:31.612Z,17.33
2022-09-26T18:39:39.827Z,17.08
2022-09-26T18:42:46.919Z,16.93
2022-09-26T18:45:54.283Z,16.58
2022-09-26T18:49:06.536Z,16.42
2022-09-26T18:52:16.148Z,16.78
2022-09-26T18:55:43.418Z,16.90
2022-09-26T18:58:50.762Z,16.41
2022-09-26T19:01:59.810Z,16.66
2022-09-26T19:05:08.636Z,16.55
2022-09-26T19:08:33.266Z,16.41
2022-09-26T19:11:41.932Z,16.41
2022-09-26T19:14:48.681Z,16.73
2022-09-26T19:17:55.149Z,16.71
2022-09-26T19:21:02.157Z,16.43
2022-09-26T19:24:20.435Z,16.42
2022-09-26T19:27:29.850Z,16.56
2022-09-26T19:30:36.285Z,16.44
2022-09-26T19:33:45.454Z,16.31
2022-09-26T19:36:52.446Z,16.21
2022-09-26T19:39:58.756Z,16.23
2022-09-26T19:43:06.271Z,16.26
2022-09-26T19:46:18.461Z,16.02
2022-09-26T19:49:27.151Z,16.23
2022-09-26T19:52:33.604Z,16.17
2022-09-26T19:55:40.625Z,16.14
2022-09-26T19:58:48.690Z,16.24
2022-09-26T20:01:55.223Z,16.20
2022-09-26T20:05:01.388Z,16.24
2022-09-26T20:08:09.627Z,16.21
2022-09-26T20:11:16.589Z,16.44
2022-09-26T20:14:27.293Z,16.18
2022-09-26T20:17:34.294Z,16.19
2022-09-26T20:20:42.369Z,15.90
2022-09-26T20:23:48.805Z,15.88
2022-09-26T20:26:56.467Z,16.16
2022-09-26T20:30:21.621Z,16.31
2022-09-26T20:33:28.152Z,15.95
2022-09-26T20:36:36.141Z,16.17
2022-09-26T20:39:43.348Z,15.97
2022-09-26T20:42:57.037Z,16.21
2022-09-26T20:46:06.703Z,16.31
2022-09-26T20:49:17.473Z,16.15
2022-09-26T20:52:26.151Z,16.25
2022-09-26T20:55:33.423Z,16.23
2022-09-26T20:58:39.544Z,16.05
2022-09-26T21:01:47.546Z,16.18
2022-09-26T21:04:55.011Z,16.22
2022-09-26T21:08:01.776Z,16.11
2022-09-26T21:11:11.576Z,16.21
2022-09-26T21:14:18.299Z,16.15
2022-09-26T21:17:29.312Z,15.88
2022-09-26T21:20:36.108Z,15.87
2022-09-26T21:23:44.239Z,15.74
2022-09-26T21:26:50.852Z,15.83
2022-09-26T21:29:57.353Z,15.94
2022-09-26T21:33:05.212Z,15.76
2022-09-26T21:36:11.655Z,15.93
2022-09-26T21:39:19.633Z,15.99
2022-09-26T21:42:27.359Z,15.90
2022-09-26T21:45:34.043Z,15.89
2022-09-26T21:48:41.625Z,16.01
2022-09-26T21:51:51.840Z,15.68
2022-09-26T21:55:01.038Z,15.94
2022-09-26T21:58:13.907Z,15.79
2022-09-26T22:01:20.550Z,16.27
2022-09-26T22:04:28.183Z,16.11
2022-09-26T22:07:34.067Z,15.83
2022-09-26T22:10:40.380Z,15.93
2022-09-26T22:13:46.614Z,16.04
2022-09-26T22:16:54.800Z,15.97
2022-09-26T22:20:02.464Z,16.03
2022-09-26T22:23:08.839Z,15.93
2022-09-26T22:26:15.043Z,16.19
2022-09-26T22:29:21.547Z,15.96
2022-09-26T22:32:28.308Z,16.00
2022-09-26T22:35:36.601Z,16.08
2022-09-26T22:38:43.096Z,16.05
2022-09-26T22:41:49.273Z,16.24
2022-09-26T22:44:55.807Z,15.89
2022-09-26T22:48:02.288Z,15.70
2022-09-26T22:51:10.584Z,15.80
2022-09-26T22:54:17.227Z,15.84
2022-09-26T22:57:23.585Z,15.94
2022-09-26T23:00:29.884Z,15.79
2022-09-26T23:03:36.413Z,15.63
2022-09-26T23:06:44.885Z,16.08
2022-09-26T23:09:51.033Z,15.91
2022-09-26T23:12:58.440Z,15.79
2022-09-26T23:16:06.446Z,15.88
2022-09-26T23:19:12.546Z,15.75
2022-09-26T23:22:19.907Z,15.79
2022-09-26T23:25:26.183Z,16.03
2022-09-26T23:28:33.844Z,15.83
2022-09-26T23:31:40.064Z,16.11
2022-09-26T23:34:46.304Z,15.96
2022-09-26T23:37:53.900Z,15.83
2022-09-26T23:41:00.137Z,15.64
2022-09-26T23:44:06.414Z,15.86
2022-09-26T23:47:12.650Z,15.79
2022-09-26T23:50:19.104Z,15.69
2022-09-26T23:53:26.964Z,15.85
2022-09-26T23:56:32.993Z,15.89
2022-09-26T23:59:39.474Z,15.89
